Terminal Aerodrome Forecast
Issued by NWS

Home | Current Version | Previous Version | Graphics & Text | Print | Product List | Glossary On
Versions: 1 2 3 4 5 6 7 8 9 10 11 12 13 14 15 16 17 18 19
000
FTUS43 KBIS 220520
TAFMOT
TAF
KMOT 220520Z 2206/2306 13017G25KT P6SM BKN050
     FM221100 15011KT P6SM VCSH OVC015
     FM221800 16011KT P6SM BKN025
     FM222100 17011KT P6SM BKN050=

USA.gov is the U.S. government's official web portal to all federal, state and local government web resources and services.